This is the latest recevied weather packets stored in our database for station/object OM6ACB-6. If no packets are shown the sender has not sent any weather packets the latest 10 day(s).
| Time | Temp. | Humidity | Pressure | Rain* | Wind** | Luminosity | Snow |
|---|---|---|---|---|---|---|---|
| 1788549340 | 21.67° C | 22% | 1018.3 hPa | 0 mm | - | - | - |
| 1788548740 | 21.11° C | 22% | 1018.3 hPa | 0 mm | - | - | - |
| 1788548140 | 22.22° C | 21% | 1018.3 hPa | 0 mm | - | - | - |
| 1788547540 | 21.67° C | 22% | 1018.3 hPa | 0 mm | - | - | - |
| 1788546939 | 20.56° C | 22% | 1018.1 hPa | 0 mm | - | - | - |
| 1788546339 | 21.11° C | 22% | 1018.1 hPa | 0 mm | - | - | - |
| 1788545739 | 21.67° C | 22% | 1018.1 hPa | 0 mm | - | - | - |
| 1788545138 | 21.11° C | 22% | 1017.9 hPa | 0 mm | - | - | - |
| 1788544538 | 20.56° C | 22% | 1017.8 hPa | 0 mm | - | - | - |
| 1788543938 | 21.11° C | 22% | 1017.8 hPa | 0 mm | - | - | - |
| 1788543337 | 21.67° C | 22% | 1017.9 hPa | 0 mm | - | - | - |
| 1788542737 | 22.22° C | 21% | 1017.9 hPa | 0 mm | - | - | - |
| 1788542137 | 22.78° C | 21% | 1018.1 hPa | 0 mm | - | - | - |
| 1788541537 | 22.78° C | 21% | 1018.2 hPa | 0 mm | - | - | - |
| 1788540936 | 23.33° C | 21% | 1018.4 hPa | 0 mm | - | - | - |
| 1788540336 | 24.44° C | 20% | 1018.6 hPa | 0 mm | - | - | - |
| 1788539736 | 24.44° C | 20% | 1018.8 hPa | 0 mm | - | - | - |
| 1788539136 | 25° C | 20% | 1019 hPa | 0 mm | - | - | - |
| 1788538535 | 25.56° C | 20% | 1019.3 hPa | 0 mm | - | - | - |
| 1788537935 | 27.22° C | 20% | 1019.6 hPa | 0 mm | - | - | - |
| 1788537335 | 27.22° C | 20% | 1019.6 hPa | 0 mm | - | - | - |
| 1788536746 | 27.22° C | 20% | 1019.6 hPa | 0 mm | - | - | - |
| 1788536134 | 26.67° C | 20% | 1019.8 hPa | 0 mm | - | - | - |
| 1788535534 | 25.56° C | 20% | 1019.8 hPa | 0 mm | - | - | - |
| 1788534934 | 24.44° C | 20% | 1019.8 hPa | 0 mm | - | - | - |
* Rain latest hour (hover to see other rain measurements)
** Current wind speed in m/s (hover to see current wind gust speed)